sensor_id;sensor_type;location;lat;lon;timestamp;pressure;altitude;pressure_sealevel;temperature;humidity
63405;BME280;49541;57.840;12.306;2023-04-16T00:00:30;101478.09;;;9.66;62.60
63405;BME280;49541;57.840;12.306;2023-04-16T00:05:30;101475.72;;;9.48;62.87
63405;BME280;49541;57.840;12.306;2023-04-16T00:10:31;101488.25;;;9.33;63.51
63405;BME280;49541;57.840;12.306;2023-04-16T00:15:31;101481.34;;;9.31;63.26
63405;BME280;49541;57.840;12.306;2023-04-16T00:20:31;101485.41;;;9.36;63.27
63405;BME280;49541;57.840;12.306;2023-04-16T00:25:31;101485.50;;;9.35;62.81
63405;BME280;49541;57.840;12.306;2023-04-16T00:30:31;101485.47;;;9.22;62.94
63405;BME280;49541;57.840;12.306;2023-04-16T00:35:31;101476.16;;;9.42;62.79
63405;BME280;49541;57.840;12.306;2023-04-16T00:40:32;101474.69;;;9.63;61.76
63405;BME280;49541;57.840;12.306;2023-04-16T00:45:32;101484.44;;;9.37;62.42
63405;BME280;49541;57.840;12.306;2023-04-16T00:50:32;101474.88;;;9.48;62.08
63405;BME280;49541;57.840;12.306;2023-04-16T00:55:32;101472.03;;;9.51;61.49
63405;BME280;49541;57.840;12.306;2023-04-16T01:00:33;101483.69;;;9.48;60.77
63405;BME280;49541;57.840;12.306;2023-04-16T01:05:34;101473.84;;;9.63;60.06
63405;BME280;49541;57.840;12.306;2023-04-16T01:10:34;101485.63;;;9.72;59.50
63405;BME280;49541;57.840;12.306;2023-04-16T01:15:35;101485.78;;;9.70;59.24
63405;BME280;49541;57.840;12.306;2023-04-16T01:20:36;101485.78;;;9.70;59.27
63405;BME280;49541;57.840;12.306;2023-04-16T01:25:36;101486.34;;;9.35;59.54
63405;BME280;49541;57.840;12.306;2023-04-16T01:30:36;101487.50;;;9.31;59.57
63405;BME280;49541;57.840;12.306;2023-04-16T01:35:37;101487.34;;;9.07;59.66
63405;BME280;49541;57.840;12.306;2023-04-16T01:40:37;101481.22;;;8.92;59.80
63405;BME280;49541;57.840;12.306;2023-04-16T01:45:37;101489.06;;;8.81;60.18
63405;BME280;49541;57.840;12.306;2023-04-16T01:50:38;101486.78;;;8.75;60.34
63405;BME280;49541;57.840;12.306;2023-04-16T01:55:38;101483.59;;;8.70;60.07
63405;BME280;49541;57.840;12.306;2023-04-16T02:00:38;101481.44;;;8.89;59.35
63405;BME280;49541;57.840;12.306;2023-04-16T02:05:39;101487.34;;;9.07;58.91
63405;BME280;49541;57.840;12.306;2023-04-16T02:10:39;101485.56;;;9.20;58.05
63405;BME280;49541;57.840;12.306;2023-04-16T02:15:39;101483.84;;;9.07;58.26
63405;BME280;49541;57.840;12.306;2023-04-16T02:20:44;101490.38;;;9.01;57.95
63405;BME280;49541;57.840;12.306;2023-04-16T02:25:44;101492.16;;;8.88;57.70
63405;BME280;49541;57.840;12.306;2023-04-16T02:30:45;101502.53;;;8.78;57.96
63405;BME280;49541;57.840;12.306;2023-04-16T02:35:45;101505.00;;;8.67;58.13
63405;BME280;49541;57.840;12.306;2023-04-16T02:40:47;101505.59;;;8.57;59.20
63405;BME280;49541;57.840;12.306;2023-04-16T02:45:47;101502.88;;;8.59;59.56
63405;BME280;49541;57.840;12.306;2023-04-16T02:50:47;101492.84;;;8.50;59.03
63405;BME280;49541;57.840;12.306;2023-04-16T02:55:51;101491.78;;;8.52;58.38
63405;BME280;49541;57.840;12.306;2023-04-16T03:00:52;101497.94;;;8.53;58.21
63405;BME280;49541;57.840;12.306;2023-04-16T03:05:52;101492.63;;;8.53;58.21
63405;BME280;49541;57.840;12.306;2023-04-16T03:10:52;101492.50;;;8.69;57.83
63405;BME280;49541;57.840;12.306;2023-04-16T03:15:53;101490.16;;;8.35;58.30
63405;BME280;49541;57.840;12.306;2023-04-16T03:20:53;101493.75;;;8.34;58.50
63405;BME280;49541;57.840;12.306;2023-04-16T03:25:53;101496.06;;;8.26;58.31
63405;BME280;49541;57.840;12.306;2023-04-16T03:30:53;101503.25;;;8.53;58.23
63405;BME280;49541;57.840;12.306;2023-04-16T03:35:56;101507.41;;;8.57;57.63
63405;BME280;49541;57.840;12.306;2023-04-16T03:40:57;101509.22;;;8.56;57.29
63405;BME280;49541;57.840;12.306;2023-04-16T03:45:57;101507.91;;;8.35;57.62
63405;BME280;49541;57.840;12.306;2023-04-16T03:50:57;101503.63;;;8.47;57.67
63405;BME280;49541;57.840;12.306;2023-04-16T03:55:58;101509.09;;;8.58;57.16
63405;BME280;49541;57.840;12.306;2023-04-16T04:00:58;101510.47;;;8.51;57.40
63405;BME280;49541;57.840;12.306;2023-04-16T04:05:58;101507.03;;;8.63;57.06
63405;BME280;49541;57.840;12.306;2023-04-16T04:10:58;101502.97;;;8.43;57.17
63405;BME280;49541;57.840;12.306;2023-04-16T04:15:59;101508.44;;;8.40;57.30
63405;BME280;49541;57.840;12.306;2023-04-16T04:20:59;101514.34;;;8.31;57.56
63405;BME280;49541;57.840;12.306;2023-04-16T04:26:03;101504.28;;;8.36;57.05
63405;BME280;49541;57.840;12.306;2023-04-16T04:31:04;101504.03;;;8.12;58.20
63405;BME280;49541;57.840;12.306;2023-04-16T04:36:05;101513.41;;;8.03;58.41
63405;BME280;49541;57.840;12.306;2023-04-16T04:41:05;101515.84;;;8.06;58.18
63405;BME280;49541;57.840;12.306;2023-04-16T04:46:05;101519.84;;;7.99;58.61
63405;BME280;49541;57.840;12.306;2023-04-16T04:51:05;101522.84;;;8.21;57.80
63405;BME280;49541;57.840;12.306;2023-04-16T04:56:06;101526.56;;;8.33;56.75
63405;BME280;49541;57.840;12.306;2023-04-16T05:01:06;101534.81;;;8.14;57.44
63405;BME280;49541;57.840;12.306;2023-04-16T05:06:06;101540.38;;;7.95;58.01
63405;BME280;49541;57.840;12.306;2023-04-16T05:11:06;101539.75;;;8.20;57.54
63405;BME280;49541;57.840;12.306;2023-04-16T05:16:06;101529.00;;;8.36;57.58
63405;BME280;49541;57.840;12.306;2023-04-16T05:21:07;101534.22;;;8.38;57.05
63405;BME280;49541;57.840;12.306;2023-04-16T05:26:07;101534.44;;;8.35;56.54
63405;BME280;49541;57.840;12.306;2023-04-16T05:31:07;101537.19;;;8.33;56.95
63405;BME280;49541;57.840;12.306;2023-04-16T05:36:07;101548.47;;;8.37;56.42
63405;BME280;49541;57.840;12.306;2023-04-16T05:41:07;101548.34;;;8.38;56.63
63405;BME280;49541;57.840;12.306;2023-04-16T05:46:07;101553.78;;;8.51;56.48
63405;BME280;49541;57.840;12.306;2023-04-16T05:51:08;101557.69;;;8.46;57.26
63405;BME280;49541;57.840;12.306;2023-04-16T05:56:08;101548.09;;;8.57;56.63
63405;BME280;49541;57.840;12.306;2023-04-16T06:01:09;101554.06;;;8.61;56.75
63405;BME280;49541;57.840;12.306;2023-04-16T06:06:09;101558.69;;;8.57;56.13
63405;BME280;49541;57.840;12.306;2023-04-16T06:11:10;101555.19;;;8.71;56.75
63405;BME280;49541;57.840;12.306;2023-04-16T06:16:10;101550.41;;;8.91;56.30
63405;BME280;49541;57.840;12.306;2023-04-16T06:21:10;101551.72;;;8.84;56.48
63405;BME280;49541;57.840;12.306;2023-04-16T06:26:11;101556.81;;;9.01;55.94
63405;BME280;49541;57.840;12.306;2023-04-16T06:31:11;101568.25;;;9.43;55.35
63405;BME280;49541;57.840;12.306;2023-04-16T06:36:11;101565.66;;;9.01;55.54
63405;BME280;49541;57.840;12.306;2023-04-16T06:41:12;101576.38;;;9.27;55.80
63405;BME280;49541;57.840;12.306;2023-04-16T06:46:12;101577.22;;;9.28;55.75
63405;BME280;49541;57.840;12.306;2023-04-16T06:51:13;101577.81;;;9.46;55.42
63405;BME280;49541;57.840;12.306;2023-04-16T06:56:13;101581.63;;;9.41;56.25
63405;BME280;49541;57.840;12.306;2023-04-16T07:01:13;101583.50;;;9.67;55.91
63405;BME280;49541;57.840;12.306;2023-04-16T07:06:13;101583.25;;;9.57;56.13
63405;BME280;49541;57.840;12.306;2023-04-16T07:11:13;101592.31;;;9.67;56.71
63405;BME280;49541;57.840;12.306;2023-04-16T07:16:14;101594.22;;;9.65;56.76
63405;BME280;49541;57.840;12.306;2023-04-16T07:21:14;101599.59;;;9.91;56.15
63405;BME280;49541;57.840;12.306;2023-04-16T07:26:14;101595.91;;;10.06;55.36
63405;BME280;49541;57.840;12.306;2023-04-16T07:31:14;101591.88;;;10.00;55.64
63405;BME280;49541;57.840;12.306;2023-04-16T07:36:15;101596.97;;;10.16;54.88
63405;BME280;49541;57.840;12.306;2023-04-16T07:41:15;101599.56;;;10.31;55.11
63405;BME280;49541;57.840;12.306;2023-04-16T07:46:15;101592.81;;;10.25;55.47
63405;BME280;49541;57.840;12.306;2023-04-16T07:51:15;101595.16;;;10.55;55.01
63405;BME280;49541;57.840;12.306;2023-04-16T07:56:16;101596.84;;;10.82;55.00
63405;BME280;49541;57.840;12.306;2023-04-16T08:01:16;101598.97;;;10.77;55.04
63405;BME280;49541;57.840;12.306;2023-04-16T08:06:17;101602.53;;;11.01;54.26
63405;BME280;49541;57.840;12.306;2023-04-16T08:11:17;101606.97;;;11.14;52.41
63405;BME280;49541;57.840;12.306;2023-04-16T08:16:17;101615.75;;;11.03;52.52
63405;BME280;49541;57.840;12.306;2023-04-16T08:21:17;101628.28;;;11.14;51.70
63405;BME280;49541;57.840;12.306;2023-04-16T08:26:17;101623.31;;;11.33;51.46
63405;BME280;49541;57.840;12.306;2023-04-16T08:31:18;101626.56;;;11.50;51.08
63405;BME280;49541;57.840;12.306;2023-04-16T08:36:18;101636.66;;;11.57;51.06
63405;BME280;49541;57.840;12.306;2023-04-16T08:41:18;101626.94;;;11.32;50.71
63405;BME280;49541;57.840;12.306;2023-04-16T08:46:21;101644.06;;;11.65;49.75
63405;BME280;49541;57.840;12.306;2023-04-16T08:51:21;101635.28;;;11.52;50.50
63405;BME280;49541;57.840;12.306;2023-04-16T08:56:23;101644.19;;;11.87;49.48
63405;BME280;49541;57.840;12.306;2023-04-16T09:01:24;101645.25;;;12.09;49.46
63405;BME280;49541;57.840;12.306;2023-04-16T09:06:28;101650.91;;;12.62;47.95
63405;BME280;49541;57.840;12.306;2023-04-16T09:11:28;101650.66;;;12.65;47.35
63405;BME280;49541;57.840;12.306;2023-04-16T09:16:31;101647.22;;;13.20;46.12
63405;BME280;49541;57.840;12.306;2023-04-16T09:21:32;101652.56;;;13.42;45.18
63405;BME280;49541;57.840;12.306;2023-04-16T09:26:32;101656.88;;;13.66;44.59
63405;BME280;49541;57.840;12.306;2023-04-16T09:31:33;101652.34;;;13.99;43.13
63405;BME280;49541;57.840;12.306;2023-04-16T09:36:34;101652.22;;;13.68;43.76
63405;BME280;49541;57.840;12.306;2023-04-16T09:41:35;101655.72;;;14.01;42.72
63405;BME280;49541;57.840;12.306;2023-04-16T09:46:41;101656.09;;;13.75;44.31
63405;BME280;49541;57.840;12.306;2023-04-16T09:51:43;101659.69;;;14.06;42.82
63405;BME280;49541;57.840;12.306;2023-04-16T09:56:44;101661.66;;;14.25;42.57
63405;BME280;49541;57.840;12.306;2023-04-16T10:01:44;101649.69;;;14.71;42.02
63405;BME280;49541;57.840;12.306;2023-04-16T10:07:03;101646.13;;;14.61;41.38
63405;BME280;49541;57.840;12.306;2023-04-16T10:12:04;101653.41;;;14.90;41.54
63405;BME280;49541;57.840;12.306;2023-04-16T10:17:06;101659.66;;;15.00;40.57
63405;BME280;49541;57.840;12.306;2023-04-16T10:22:06;101657.75;;;15.22;39.97
63405;BME280;49541;57.840;12.306;2023-04-16T10:27:06;101659.06;;;14.87;40.32
63405;BME280;49541;57.840;12.306;2023-04-16T10:32:06;101662.78;;;15.05;40.64
63405;BME280;49541;57.840;12.306;2023-04-16T10:37:07;101664.50;;;15.86;39.16
63405;BME280;49541;57.840;12.306;2023-04-16T10:42:08;101655.75;;;15.84;38.08
63405;BME280;49541;57.840;12.306;2023-04-16T10:47:09;101646.22;;;16.18;38.39
63405;BME280;49541;57.840;12.306;2023-04-16T10:52:13;101653.72;;;16.72;37.19
63405;BME280;49541;57.840;12.306;2023-04-16T10:57:16;101654.22;;;17.40;35.65
63405;BME280;49541;57.840;12.306;2023-04-16T11:02:17;101650.38;;;17.61;35.25
63405;BME280;49541;57.840;12.306;2023-04-16T11:07:18;101659.44;;;17.88;35.87
63405;BME280;49541;57.840;12.306;2023-04-16T11:17:19;101651.88;;;18.96;33.19
63405;BME280;49541;57.840;12.306;2023-04-16T11:22:20;101649.31;;;19.45;32.57
63405;BME280;49541;57.840;12.306;2023-04-16T11:27:21;101647.16;;;19.65;31.96
63405;BME280;49541;57.840;12.306;2023-04-16T11:32:21;101644.84;;;19.95;31.71
63405;BME280;49541;57.840;12.306;2023-04-16T11:37:40;101643.53;;;20.71;30.71
63405;BME280;49541;57.840;12.306;2023-04-16T11:42:40;101650.91;;;21.25;29.18
63405;BME280;49541;57.840;12.306;2023-04-16T11:47:47;101636.72;;;21.54;28.27
63405;BME280;49541;57.840;12.306;2023-04-16T11:52:51;101635.88;;;21.54;28.01
63405;BME280;49541;57.840;12.306;2023-04-16T11:57:52;101641.09;;;22.16;26.85
63405;BME280;49541;57.840;12.306;2023-04-16T12:02:52;101645.31;;;22.57;27.01
63405;BME280;49541;57.840;12.306;2023-04-16T12:07:54;101641.91;;;22.40;26.84
63405;BME280;49541;57.840;12.306;2023-04-16T12:13:08;101644.91;;;22.89;25.86
63405;BME280;49541;57.840;12.306;2023-04-16T12:18:08;101643.03;;;23.05;25.14
63405;BME280;49541;57.840;12.306;2023-04-16T12:23:08;101646.88;;;23.47;24.76
63405;BME280;49541;57.840;12.306;2023-04-16T12:28:08;101638.31;;;23.50;23.53
63405;BME280;49541;57.840;12.306;2023-04-16T12:33:13;101634.78;;;24.21;23.01
63405;BME280;49541;57.840;12.306;2023-04-16T12:38:14;101632.66;;;23.88;23.81
63405;BME280;49541;57.840;12.306;2023-04-16T12:43:14;101630.50;;;24.05;22.75
63405;BME280;49541;57.840;12.306;2023-04-16T12:53:49;101628.34;;;25.05;22.46
63405;BME280;49541;57.840;12.306;2023-04-16T12:58:49;101629.69;;;25.22;21.86
63405;BME280;49541;57.840;12.306;2023-04-16T13:03:50;101621.38;;;25.57;20.88
63405;BME280;49541;57.840;12.306;2023-04-16T13:08:51;101628.50;;;25.45;21.32
63405;BME280;49541;57.840;12.306;2023-04-16T13:13:51;101625.16;;;25.43;21.33
63405;BME280;49541;57.840;12.306;2023-04-16T13:18:51;101625.78;;;25.58;21.39
63405;BME280;49541;57.840;12.306;2023-04-16T13:23:51;101620.75;;;25.55;21.33
63405;BME280;49541;57.840;12.306;2023-04-16T13:28:53;101619.72;;;25.56;21.87
63405;BME280;49541;57.840;12.306;2023-04-16T13:33:53;101620.81;;;25.95;21.15
63405;BME280;49541;57.840;12.306;2023-04-16T13:38:53;101627.00;;;25.49;21.03
63405;BME280;49541;57.840;12.306;2023-04-16T13:43:54;101619.22;;;24.78;21.63
63405;BME280;49541;57.840;12.306;2023-04-16T13:48:54;101611.19;;;24.63;22.63
63405;BME280;49541;57.840;12.306;2023-04-16T13:53:54;101603.16;;;24.20;22.98
63405;BME280;49541;57.840;12.306;2023-04-16T13:58:55;101610.72;;;23.75;23.50
63405;BME280;49541;57.840;12.306;2023-04-16T14:03:55;101606.59;;;23.36;23.54
63405;BME280;49541;57.840;12.306;2023-04-16T14:08:55;101601.94;;;23.29;23.57
63405;BME280;49541;57.840;12.306;2023-04-16T14:13:55;101608.88;;;23.75;22.94
63405;BME280;49541;57.840;12.306;2023-04-16T14:18:56;101602.84;;;24.01;23.87
63405;BME280;49541;57.840;12.306;2023-04-16T14:23:56;101606.84;;;24.68;23.25
63405;BME280;49541;57.840;12.306;2023-04-16T14:28:56;101605.44;;;25.41;22.10
63405;BME280;49541;57.840;12.306;2023-04-16T14:33:56;101605.47;;;25.94;21.61
63405;BME280;49541;57.840;12.306;2023-04-16T14:38:56;101614.47;;;26.93;21.09
63405;BME280;49541;57.840;12.306;2023-04-16T14:43:57;101615.34;;;26.93;21.35
63405;BME280;49541;57.840;12.306;2023-04-16T14:48:58;101616.00;;;26.89;22.19
63405;BME280;49541;57.840;12.306;2023-04-16T14:53:58;101618.47;;;26.97;21.53
63405;BME280;49541;57.840;12.306;2023-04-16T14:58:58;101620.03;;;26.73;23.31
63405;BME280;49541;57.840;12.306;2023-04-16T15:03:58;101621.84;;;25.94;23.53
63405;BME280;49541;57.840;12.306;2023-04-16T15:08:58;101626.00;;;25.57;23.68
63405;BME280;49541;57.840;12.306;2023-04-16T15:13:59;101621.38;;;25.70;23.07
63405;BME280;49541;57.840;12.306;2023-04-16T15:19:00;101635.34;;;25.21;23.54
63405;BME280;49541;57.840;12.306;2023-04-16T15:24:00;101629.34;;;24.97;23.62
63405;BME280;49541;57.840;12.306;2023-04-16T15:29:00;101630.16;;;25.39;23.55
63405;BME280;49541;57.840;12.306;2023-04-16T15:34:01;101634.59;;;25.47;23.63
63405;BME280;49541;57.840;12.306;2023-04-16T15:39:01;101642.34;;;25.50;23.75
63405;BME280;49541;57.840;12.306;2023-04-16T15:44:01;101646.41;;;26.07;22.98
63405;BME280;49541;57.840;12.306;2023-04-16T15:49:02;101648.25;;;26.13;23.64
63405;BME280;49541;57.840;12.306;2023-04-16T15:54:02;101655.81;;;26.38;22.93
63405;BME280;49541;57.840;12.306;2023-04-16T15:59:02;101661.47;;;26.43;22.23
63405;BME280;49541;57.840;12.306;2023-04-16T16:04:03;101666.25;;;25.61;23.30
63405;BME280;49541;57.840;12.306;2023-04-16T16:09:03;101658.09;;;26.48;22.61
63405;BME280;49541;57.840;12.306;2023-04-16T16:14:03;101658.34;;;26.13;22.19
63405;BME280;49541;57.840;12.306;2023-04-16T16:19:04;101668.63;;;26.31;22.02
63405;BME280;49541;57.840;12.306;2023-04-16T16:24:05;101679.16;;;26.01;22.23
63405;BME280;49541;57.840;12.306;2023-04-16T16:29:05;101670.16;;;25.25;23.37
63405;BME280;49541;57.840;12.306;2023-04-16T16:34:06;101671.16;;;24.69;23.81
63405;BME280;49541;57.840;12.306;2023-04-16T16:39:06;101677.41;;;25.11;23.10
63405;BME280;49541;57.840;12.306;2023-04-16T16:44:07;101671.91;;;24.98;22.76
63405;BME280;49541;57.840;12.306;2023-04-16T16:49:07;101669.81;;;24.09;24.33
63405;BME280;49541;57.840;12.306;2023-04-16T16:54:08;101671.50;;;23.45;23.55
63405;BME280;49541;57.840;12.306;2023-04-16T16:59:08;101669.88;;;22.40;23.87
63405;BME280;49541;57.840;12.306;2023-04-16T17:04:09;101684.91;;;22.28;24.97
63405;BME280;49541;57.840;12.306;2023-04-16T17:09:09;101679.88;;;22.02;24.14
63405;BME280;49541;57.840;12.306;2023-04-16T17:14:09;101678.69;;;21.81;24.43
63405;BME280;49541;57.840;12.306;2023-04-16T17:19:10;101685.34;;;21.39;25.17
63405;BME280;49541;57.840;12.306;2023-04-16T17:24:11;101690.38;;;21.19;25.39
63405;BME280;49541;57.840;12.306;2023-04-16T17:29:11;101684.66;;;20.50;25.65
63405;BME280;49541;57.840;12.306;2023-04-16T17:34:11;101700.06;;;19.92;25.99
63405;BME280;49541;57.840;12.306;2023-04-16T17:39:11;101702.06;;;19.74;25.82
63405;BME280;49541;57.840;12.306;2023-04-16T17:44:12;101701.91;;;18.90;27.16
63405;BME280;49541;57.840;12.306;2023-04-16T17:49:12;101703.66;;;18.03;28.35
63405;BME280;49541;57.840;12.306;2023-04-16T17:54:12;101709.38;;;17.54;28.65
63405;BME280;49541;57.840;12.306;2023-04-16T17:59:12;101714.41;;;17.22;29.52
63405;BME280;49541;57.840;12.306;2023-04-16T18:04:12;101719.53;;;16.58;30.53
63405;BME280;49541;57.840;12.306;2023-04-16T18:09:13;101716.78;;;16.11;30.78
63405;BME280;49541;57.840;12.306;2023-04-16T18:14:13;101726.53;;;15.83;30.98
63405;BME280;49541;57.840;12.306;2023-04-16T18:19:18;101722.88;;;15.84;31.51
63405;BME280;49541;57.840;12.306;2023-04-16T18:24:18;101730.31;;;15.70;31.23
63405;BME280;49541;57.840;12.306;2023-04-16T18:29:18;101736.25;;;15.74;31.08
63405;BME280;49541;57.840;12.306;2023-04-16T18:34:19;101739.19;;;15.61;31.26
63405;BME280;49541;57.840;12.306;2023-04-16T18:39:20;101743.00;;;15.59;32.03
63405;BME280;49541;57.840;12.306;2023-04-16T18:44:21;101755.84;;;15.14;32.35
63405;BME280;49541;57.840;12.306;2023-04-16T18:49:22;101755.50;;;14.98;31.92
63405;BME280;49541;57.840;12.306;2023-04-16T18:54:22;101756.63;;;14.95;32.43
63405;BME280;49541;57.840;12.306;2023-04-16T18:59:22;101762.09;;;14.31;33.23
63405;BME280;49541;57.840;12.306;2023-04-16T19:04:23;101766.78;;;13.74;34.49
63405;BME280;49541;57.840;12.306;2023-04-16T19:09:23;101773.19;;;13.94;33.57
63405;BME280;49541;57.840;12.306;2023-04-16T19:14:23;101774.31;;;13.80;34.46
63405;BME280;49541;57.840;12.306;2023-04-16T19:19:23;101781.38;;;13.70;35.68
63405;BME280;49541;57.840;12.306;2023-04-16T19:24:24;101782.25;;;13.59;36.21
63405;BME280;49541;57.840;12.306;2023-04-16T19:29:24;101793.81;;;13.26;37.56
63405;BME280;49541;57.840;12.306;2023-04-16T19:34:24;101795.31;;;13.30;37.89
63405;BME280;49541;57.840;12.306;2023-04-16T19:39:25;101798.66;;;13.09;38.28
63405;BME280;49541;57.840;12.306;2023-04-16T19:44:26;101791.34;;;12.89;38.89
63405;BME280;49541;57.840;12.306;2023-04-16T19:49:26;101789.63;;;12.77;38.93
63405;BME280;49541;57.840;12.306;2023-04-16T19:54:27;101790.53;;;12.53;39.78
63405;BME280;49541;57.840;12.306;2023-04-16T19:59:28;101790.03;;;12.48;39.28
63405;BME280;49541;57.840;12.306;2023-04-16T20:04:28;101790.69;;;12.03;40.62
63405;BME280;49541;57.840;12.306;2023-04-16T20:09:28;101799.41;;;11.81;41.60
63405;BME280;49541;57.840;12.306;2023-04-16T20:14:28;101795.81;;;11.57;42.09
63405;BME280;49541;57.840;12.306;2023-04-16T20:19:29;101785.47;;;11.65;41.87
63405;BME280;49541;57.840;12.306;2023-04-16T20:24:32;101789.66;;;11.43;42.35
63405;BME280;49541;57.840;12.306;2023-04-16T20:29:33;101793.31;;;11.42;42.05
63405;BME280;49541;57.840;12.306;2023-04-16T20:34:33;101801.22;;;11.18;42.81
63405;BME280;49541;57.840;12.306;2023-04-16T20:39:33;101797.81;;;10.78;44.15
63405;BME280;49541;57.840;12.306;2023-04-16T20:44:35;101802.56;;;10.60;44.06
63405;BME280;49541;57.840;12.306;2023-04-16T20:49:42;101808.72;;;10.20;44.61
63405;BME280;49541;57.840;12.306;2023-04-16T20:54:48;101817.97;;;9.88;45.58
63405;BME280;49541;57.840;12.306;2023-04-16T20:59:50;101814.13;;;9.50;46.62
63405;BME280;49541;57.840;12.306;2023-04-16T21:04:51;101820.47;;;9.05;47.65
63405;BME280;49541;57.840;12.306;2023-04-16T21:09:51;101819.72;;;9.02;48.09
63405;BME280;49541;57.840;12.306;2023-04-16T21:14:51;101829.47;;;8.88;48.10
63405;BME280;49541;57.840;12.306;2023-04-16T21:19:51;101835.47;;;8.61;48.82
63405;BME280;49541;57.840;12.306;2023-04-16T21:24:51;101833.03;;;8.42;49.30
63405;BME280;49541;57.840;12.306;2023-04-16T21:29:52;101836.19;;;8.33;49.79
63405;BME280;49541;57.840;12.306;2023-04-16T21:34:52;101833.88;;;8.27;49.94
63405;BME280;49541;57.840;12.306;2023-04-16T21:39:52;101842.53;;;8.14;50.14
63405;BME280;49541;57.840;12.306;2023-04-16T21:44:52;101842.06;;;7.92;50.28
63405;BME280;49541;57.840;12.306;2023-04-16T21:49:52;101839.88;;;7.67;50.87
63405;BME280;49541;57.840;12.306;2023-04-16T21:54:53;101843.31;;;7.69;50.78
63405;BME280;49541;57.840;12.306;2023-04-16T21:59:53;101849.25;;;7.41;51.14
63405;BME280;49541;57.840;12.306;2023-04-16T22:04:53;101857.31;;;7.22;51.70
63405;BME280;49541;57.840;12.306;2023-04-16T22:09:53;101851.44;;;6.99;52.21
63405;BME280;49541;57.840;12.306;2023-04-16T22:14:53;101856.88;;;6.96;52.36
63405;BME280;49541;57.840;12.306;2023-04-16T22:19:54;101860.31;;;6.63;52.79
63405;BME280;49541;57.840;12.306;2023-04-16T22:24:54;101861.06;;;6.48;53.21
63405;BME280;49541;57.840;12.306;2023-04-16T22:29:54;101864.72;;;6.45;53.49
63405;BME280;49541;57.840;12.306;2023-04-16T22:34:54;101867.50;;;6.42;52.92
63405;BME280;49541;57.840;12.306;2023-04-16T22:39:55;101871.81;;;6.26;53.23
63405;BME280;49541;57.840;12.306;2023-04-16T22:44:55;101887.69;;;6.26;53.30
63405;BME280;49541;57.840;12.306;2023-04-16T22:49:55;101883.91;;;5.93;53.78
63405;BME280;49541;57.840;12.306;2023-04-16T22:54:56;101877.47;;;5.61;54.73
63405;BME280;49541;57.840;12.306;2023-04-16T22:59:56;101890.03;;;5.56;55.09
63405;BME280;49541;57.840;12.306;2023-04-16T23:04:56;101898.53;;;5.63;54.29
63405;BME280;49541;57.840;12.306;2023-04-16T23:09:58;101888.56;;;5.30;55.53
63405;BME280;49541;57.840;12.306;2023-04-16T23:14:58;101889.44;;;5.10;56.05
63405;BME280;49541;57.840;12.306;2023-04-16T23:19:59;101887.38;;;4.96;55.94
63405;BME280;49541;57.840;12.306;2023-04-16T23:24:59;101895.50;;;4.91;55.98
63405;BME280;49541;57.840;12.306;2023-04-16T23:29:59;101892.44;;;4.80;56.35
63405;BME280;49541;57.840;12.306;2023-04-16T23:35:00;101905.50;;;4.83;56.45
63405;BME280;49541;57.840;12.306;2023-04-16T23:40:00;101903.50;;;4.68;56.20
63405;BME280;49541;57.840;12.306;2023-04-16T23:45:00;101908.91;;;4.65;56.46
63405;BME280;49541;57.840;12.306;2023-04-16T23:50:00;101905.59;;;4.60;56.29
63405;BME280;49541;57.840;12.306;2023-04-16T23:55:00;101918.38;;;4.48;56.45
